createdAt,value
2018-11-29T00:00:07.357Z,102108.94
2018-11-29T00:01:07.663Z,102108.01
2018-11-29T00:02:09.104Z,102108.01
2018-11-29T00:03:09.650Z,102107.75
2018-11-29T00:04:08.972Z,102107.16
2018-11-29T00:05:10.303Z,102106.82
2018-11-29T00:06:10.634Z,102106.26
2018-11-29T00:07:10.967Z,102106.76
2018-11-29T00:08:11.476Z,102106.00
2018-11-29T00:09:11.872Z,102106.00
2018-11-29T00:10:12.317Z,102105.33
2018-11-29T00:11:12.637Z,102104.66
2018-11-29T00:12:13.185Z,102103.66
2018-11-29T00:13:13.479Z,102103.31
2018-11-29T00:13:21.942Z,102089.24
2018-11-29T00:14:23.284Z,102088.81
2018-11-29T00:15:23.588Z,102088.48
2018-11-29T00:16:24.413Z,102088.57
2018-11-29T00:17:25.212Z,102088.83
2018-11-29T00:18:25.573Z,102088.89
2018-11-29T00:19:25.868Z,102089.23
2018-11-29T00:20:26.200Z,102089.80
2018-11-29T00:21:26.531Z,102089.56
2018-11-29T00:22:26.780Z,102090.08
2018-11-29T00:23:27.406Z,102089.80
2018-11-29T00:24:27.955Z,102089.55
2018-11-29T00:25:27.216Z,102089.58
2018-11-29T00:26:27.693Z,102089.12
2018-11-29T00:27:28.941Z,102088.55
2018-11-29T00:28:29.672Z,102087.47
2018-11-29T00:29:30.195Z,102086.63
2018-11-29T00:30:29.843Z,102085.45
2018-11-29T00:31:31.384Z,102085.02
2018-11-29T00:32:31.721Z,102084.34
2018-11-29T00:33:32.010Z,102084.27
2018-11-29T00:34:32.567Z,102084.02
2018-11-29T00:35:32.971Z,102083.69
2018-11-29T00:36:33.364Z,102083.78
2018-11-29T00:37:33.859Z,102084.60
2018-11-29T00:38:33.235Z,102085.20
2018-11-29T00:39:33.507Z,102085.79
2018-11-29T00:40:34.895Z,102086.52
2018-11-29T00:41:35.312Z,102086.52
2018-11-29T00:42:36.362Z,102086.61
2018-11-29T00:43:35.715Z,102087.03
2018-11-29T00:44:36.406Z,102086.53
2018-11-29T00:45:37.851Z,102085.94
2018-11-29T00:46:38.323Z,102085.34
2018-11-29T00:47:38.626Z,102084.95
2018-11-29T00:48:38.918Z,102084.69
2018-11-29T00:49:39.712Z,102084.44
2018-11-29T00:50:40.217Z,102083.78
2018-11-29T00:51:39.451Z,102083.52
2018-11-29T00:52:40.881Z,102083.09
2018-11-29T00:53:41.166Z,102082.67
2018-11-29T00:54:41.560Z,102082.52
2018-11-29T00:55:41.927Z,102082.42
2018-11-29T00:56:42.248Z,102083.20
2018-11-29T00:57:42.620Z,102083.36
2018-11-29T00:58:42.876Z,102083.20
2018-11-29T00:59:43.311Z,102083.95
2018-11-29T01:00:43.735Z,102084.53
2018-11-29T01:01:44.037Z,102084.94
2018-11-29T01:02:44.331Z,102085.95
2018-11-29T01:03:44.642Z,102087.23
2018-11-29T01:04:45.114Z,102087.64
2018-11-29T01:04:53.446Z,102091.92
2018-11-29T01:05:54.069Z,102091.50
2018-11-29T01:06:55.473Z,102091.00
2018-11-29T01:07:54.832Z,102090.01
2018-11-29T01:08:56.128Z,102088.66
2018-11-29T01:09:56.472Z,102087.50
2018-11-29T01:10:57.119Z,102085.41
2018-11-29T01:11:57.629Z,102084.06
2018-11-29T01:12:57.898Z,102082.81
2018-11-29T01:13:57.162Z,102082.16
2018-11-29T01:14:58.958Z,102081.30
2018-11-29T01:15:58.924Z,102080.39
2018-11-29T01:17:00.375Z,102079.55
2018-11-29T01:18:00.689Z,102078.89
2018-11-29T01:19:01.053Z,102078.14
2018-11-29T01:20:01.390Z,102077.56
2018-11-29T01:21:00.890Z,102076.63
2018-11-29T01:22:03.044Z,102076.13
2018-11-29T01:23:02.071Z,102075.78
2018-11-29T01:24:03.440Z,102075.30
2018-11-29T01:25:03.704Z,102075.31
2018-11-29T01:26:04.821Z,102075.39
2018-11-29T01:27:04.484Z,102075.13
2018-11-29T01:28:05.908Z,102074.31
2018-11-29T01:29:05.408Z,102074.22
2018-11-29T01:30:05.649Z,102073.70
2018-11-29T01:31:07.054Z,102073.81
2018-11-29T01:32:07.385Z,102074.22
2018-11-29T01:33:07.832Z,102074.13
2018-11-29T01:34:07.906Z,102074.47
2018-11-29T01:35:08.539Z,102074.14
2018-11-29T01:36:09.051Z,102073.80
2018-11-29T01:37:09.287Z,102072.88
2018-11-29T01:38:10.071Z,102072.22
2018-11-29T01:39:10.683Z,102071.89
2018-11-29T01:40:11.147Z,102071.15
2018-11-29T01:41:11.430Z,102071.30
2018-11-29T01:42:11.673Z,102070.39
2018-11-29T01:43:12.131Z,102070.03
2018-11-29T01:44:12.477Z,102069.89
2018-11-29T01:45:12.664Z,102069.37
2018-11-29T01:46:13.100Z,102068.88
2018-11-29T01:47:13.550Z,102069.12
2018-11-29T01:48:13.904Z,102069.07
2018-11-29T01:49:14.656Z,102069.57
2018-11-29T01:50:15.220Z,102069.81
2018-11-29T01:51:15.253Z,102069.89
2018-11-29T01:52:15.677Z,102070.39
2018-11-29T01:53:15.323Z,102070.47
2018-11-29T01:54:16.600Z,102070.97
2018-11-29T01:55:16.934Z,102071.47
2018-11-29T01:56:16.410Z,102071.98
2018-11-29T01:57:16.784Z,102072.48
2018-11-29T01:58:17.207Z,102072.91
2018-11-29T01:59:18.500Z,102073.16
2018-11-29T01:59:26.911Z,102071.05
2018-11-29T02:00:28.128Z,102070.30
2018-11-29T02:01:28.407Z,102070.72
2018-11-29T02:02:27.624Z,102070.72
2018-11-29T02:03:28.884Z,102070.47
2018-11-29T02:04:29.693Z,102071.05
2018-11-29T02:05:30.055Z,102070.72
2018-11-29T02:06:30.709Z,102070.45
2018-11-29T02:07:30.949Z,102070.20
2018-11-29T02:08:31.330Z,102069.45
2018-11-29T02:09:31.715Z,102069.27
2018-11-29T02:10:31.957Z,102069.27
2018-11-29T02:11:32.877Z,102068.77
2018-11-29T02:12:33.191Z,102067.94
2018-11-29T02:13:33.575Z,102068.02
2018-11-29T02:14:33.841Z,102067.61
2018-11-29T02:15:34.339Z,102067.37
2018-11-29T02:16:34.787Z,102066.76
2018-11-29T02:17:35.215Z,102065.94
2018-11-29T02:18:36.080Z,102065.08
2018-11-29T02:19:36.380Z,102063.67
2018-11-29T02:20:36.719Z,102063.15
2018-11-29T02:21:36.975Z,102061.98
2018-11-29T02:22:37.241Z,102061.47
2018-11-29T02:23:37.494Z,102060.05
2018-11-29T02:24:37.797Z,102059.12
2018-11-29T02:25:38.097Z,102057.80
2018-11-29T02:26:38.478Z,102056.87
2018-11-29T02:27:38.839Z,102055.02
2018-11-29T02:28:39.128Z,102053.78
2018-11-29T02:29:39.459Z,102053.02
2018-11-29T02:30:39.732Z,102052.16
2018-11-29T02:31:40.366Z,102050.82
2018-11-29T02:32:40.683Z,102049.91
2018-11-29T02:33:41.133Z,102048.23
2018-11-29T02:34:41.408Z,102046.89
2018-11-29T02:35:41.404Z,102046.14
2018-11-29T02:36:41.901Z,102044.86
2018-11-29T02:37:42.289Z,102043.19
2018-11-29T02:38:42.666Z,102042.19
2018-11-29T02:39:43.702Z,102040.84
2018-11-29T02:40:44.037Z,102040.44
2018-11-29T02:41:44.279Z,102039.59
2018-11-29T02:41:52.713Z,102028.46
2018-11-29T02:42:53.997Z,102028.03
2018-11-29T02:43:54.280Z,102028.03
2018-11-29T02:44:54.594Z,102028.30
2018-11-29T02:45:55.009Z,102028.12
2018-11-29T02:46:55.285Z,102027.80
2018-11-29T02:47:55.642Z,102027.45
2018-11-29T02:48:55.896Z,102026.78
2018-11-29T02:49:56.293Z,102026.53
2018-11-29T02:50:56.686Z,102025.86
2018-11-29T02:51:56.962Z,102024.59
2018-11-29T02:52:57.382Z,102023.92
2018-11-29T02:53:57.635Z,102022.86
2018-11-29T02:54:58.030Z,102022.17
2018-11-29T02:55:58.110Z,102021.35
2018-11-29T02:56:58.624Z,102020.50
2018-11-29T02:57:58.727Z,102019.57
2018-11-29T02:58:58.999Z,102018.51
2018-11-29T02:59:59.325Z,102018.51
2018-11-29T03:00:59.809Z,102017.58
2018-11-29T03:02:00.136Z,102017.00
2018-11-29T03:03:01.002Z,102015.72
2018-11-29T03:04:01.363Z,102014.64
2018-11-29T03:05:02.166Z,102013.39
2018-11-29T03:06:02.239Z,102012.53
2018-11-29T03:07:02.645Z,102012.05
2018-11-29T03:08:02.979Z,102010.80
2018-11-29T03:09:03.408Z,102009.94
2018-11-29T03:10:03.905Z,102010.02
2018-11-29T03:11:04.210Z,102009.59
2018-11-29T03:12:04.465Z,102009.08
2018-11-29T03:13:04.885Z,102007.84
2018-11-29T03:14:05.197Z,102007.17
2018-11-29T03:15:06.074Z,102006.97
2018-11-29T03:16:06.507Z,102006.16
2018-11-29T03:17:05.716Z,102005.23
2018-11-29T03:18:07.164Z,102004.45
2018-11-29T03:19:07.471Z,102003.88
2018-11-29T03:20:08.492Z,102002.80
2018-11-29T03:21:08.485Z,102002.72
2018-11-29T03:22:08.829Z,102002.05
2018-11-29T03:23:08.927Z,102001.95
2018-11-29T03:24:09.329Z,102002.13
2018-11-29T03:25:09.948Z,102002.13
2018-11-29T03:25:18.319Z,102007.13
2018-11-29T03:26:19.529Z,102006.73
2018-11-29T03:27:20.047Z,102007.23
2018-11-29T03:28:20.444Z,102007.74
2018-11-29T03:29:20.961Z,102006.98
2018-11-29T03:30:21.449Z,102006.14
2018-11-29T03:31:20.728Z,102006.06
2018-11-29T03:32:22.154Z,102005.73
2018-11-29T03:33:22.562Z,102004.64
2018-11-29T03:34:23.238Z,102003.80
2018-11-29T03:35:23.683Z,102003.13
2018-11-29T03:36:24.326Z,102002.20
2018-11-29T03:37:24.745Z,102001.10
2018-11-29T03:38:25.177Z,102000.60
2018-11-29T03:39:25.643Z,101999.87
2018-11-29T03:40:26.203Z,101998.94
2018-11-29T03:41:26.586Z,101998.27
2018-11-29T03:42:26.988Z,101997.68
2018-11-29T03:43:27.422Z,101997.25
2018-11-29T03:44:28.399Z,101996.52
2018-11-29T03:45:29.211Z,101996.09
2018-11-29T03:46:28.665Z,101995.41
2018-11-29T03:47:30.083Z,101995.36
2018-11-29T03:48:30.711Z,101994.67
2018-11-29T03:49:31.616Z,101994.52
2018-11-29T03:50:32.030Z,101993.44
2018-11-29T03:51:32.383Z,101992.68
2018-11-29T03:52:32.858Z,101992.09
2018-11-29T03:53:33.290Z,101991.49
2018-11-29T03:54:33.860Z,101991.66
2018-11-29T03:55:34.468Z,101991.49
2018-11-29T03:56:35.101Z,101991.49
2018-11-29T03:57:35.753Z,101991.25
2018-11-29T03:58:36.120Z,101991.51
2018-11-29T03:59:36.841Z,101991.09
2018-11-29T04:00:37.392Z,101990.65
2018-11-29T04:01:37.841Z,101990.08
2018-11-29T04:02:38.426Z,101989.42
2018-11-29T04:03:38.797Z,101988.89
2018-11-29T04:04:39.302Z,101987.98
2018-11-29T04:05:39.953Z,101987.13
2018-11-29T04:06:40.679Z,101986.05
2018-11-29T04:07:40.964Z,101986.03
2018-11-29T04:08:41.520Z,101985.45
2018-11-29T04:09:42.029Z,101984.37
2018-11-29T04:10:42.360Z,101983.79
2018-11-29T04:10:50.697Z,101972.77
2018-11-29T04:11:52.037Z,101972.68
2018-11-29T04:12:52.433Z,101972.84
2018-11-29T04:13:52.784Z,101972.25
2018-11-29T04:14:53.476Z,101971.92
2018-11-29T04:15:53.796Z,101971.42
2018-11-29T04:16:54.217Z,101971.25
2018-11-29T04:17:55.038Z,101971.00
2018-11-29T04:19:04.226Z,101970.84
2018-11-29T04:19:55.727Z,101970.74
2018-11-29T04:20:56.141Z,101970.91
2018-11-29T04:21:56.735Z,101970.69
2018-11-29T04:22:57.144Z,101971.19
2018-11-29T04:23:57.468Z,101971.02
2018-11-29T04:24:58.043Z,101971.09
2018-11-29T04:25:58.537Z,101971.00
2018-11-29T04:26:59.013Z,101971.00
2018-11-29T04:27:59.593Z,101970.75
2018-11-29T04:29:00.381Z,101970.58
2018-11-29T04:30:00.776Z,101970.41
2018-11-29T04:31:01.346Z,101970.19
2018-11-29T04:32:01.976Z,101969.76
2018-11-29T04:33:02.327Z,101969.93
2018-11-29T04:34:02.654Z,101969.34
2018-11-29T04:35:03.293Z,101968.66
2018-11-29T04:36:03.715Z,101967.94
2018-11-29T04:37:04.185Z,101967.94
2018-11-29T04:38:04.684Z,101967.17
2018-11-29T04:39:05.166Z,101966.75
2018-11-29T04:40:05.637Z,101966.16
2018-11-29T04:41:06.366Z,101965.31
2018-11-29T04:42:06.835Z,101964.25
2018-11-29T04:43:07.516Z,101962.99
2018-11-29T04:44:08.143Z,101961.39
2018-11-29T04:45:08.461Z,101959.91
2018-11-29T04:46:08.962Z,101957.71
2018-11-29T04:47:09.334Z,101956.70
2018-11-29T04:48:10.150Z,101955.14
2018-11-29T04:49:09.680Z,101953.97
2018-11-29T04:50:11.075Z,101953.03
2018-11-29T04:51:11.447Z,101951.77
2018-11-29T04:52:12.009Z,101949.78
2018-11-29T04:53:12.572Z,101948.52
2018-11-29T04:54:13.413Z,101947.16
2018-11-29T04:55:14.027Z,101945.84
2018-11-29T04:56:14.417Z,101944.48
2018-11-29T04:56:23.341Z,101923.27
2018-11-29T04:57:24.949Z,101923.02
2018-11-29T04:58:25.365Z,101923.18
2018-11-29T04:59:25.703Z,101923.68
2018-11-29T05:00:26.053Z,101923.59
2018-11-29T05:01:26.682Z,101923.53
2018-11-29T05:02:27.083Z,101923.27
2018-11-29T05:03:27.543Z,101923.69
2018-11-29T05:04:28.222Z,101923.96
2018-11-29T05:05:28.375Z,101923.88
2018-11-29T05:06:29.175Z,101923.95
2018-11-29T05:07:29.566Z,101925.20
2018-11-29T05:08:30.107Z,101926.31
2018-11-29T05:09:30.479Z,101927.06
2018-11-29T05:10:30.808Z,101927.14
2018-11-29T05:11:31.205Z,101927.56
2018-11-29T05:12:31.635Z,101927.31
2018-11-29T05:13:32.024Z,101927.55
2018-11-29T05:14:32.712Z,101927.20
2018-11-29T05:15:33.045Z,101927.71
2018-11-29T05:16:33.422Z,101927.15
2018-11-29T05:17:33.900Z,101927.06
2018-11-29T05:18:34.473Z,101926.80
2018-11-29T05:19:34.798Z,101926.55
2018-11-29T05:20:35.184Z,101926.15
2018-11-29T05:21:35.924Z,101925.55
2018-11-29T05:22:36.268Z,101925.39
2018-11-29T05:23:36.706Z,101925.05
2018-11-29T05:24:37.038Z,101924.89
2018-11-29T05:25:37.418Z,101924.89
2018-11-29T05:26:38.076Z,101924.89
2018-11-29T05:27:38.509Z,101925.22
2018-11-29T05:28:38.622Z,101925.39
2018-11-29T05:29:38.969Z,101925.30
2018-11-29T05:30:39.357Z,101925.37
2018-11-29T05:31:40.059Z,101925.81
2018-11-29T05:32:40.478Z,101925.64
2018-11-29T05:33:41.106Z,101925.75
2018-11-29T05:34:41.465Z,101925.73
2018-11-29T05:35:41.894Z,101925.97
2018-11-29T05:36:42.663Z,101926.25
2018-11-29T05:37:43.330Z,101925.66
2018-11-29T05:38:43.758Z,101925.23
2018-11-29T05:39:44.257Z,101924.97
2018-11-29T05:40:44.645Z,101924.58
2018-11-29T05:40:52.987Z,101913.28
2018-11-29T05:41:54.506Z,101912.72
2018-11-29T05:42:54.981Z,101913.06
2018-11-29T05:43:55.387Z,101913.39
2018-11-29T05:44:55.723Z,101913.56
2018-11-29T05:45:56.104Z,101913.47
2018-11-29T05:46:56.475Z,101913.30
2018-11-29T05:47:56.871Z,101912.97
2018-11-29T05:48:57.357Z,101911.54
2018-11-29T05:49:57.773Z,101911.37
2018-11-29T05:50:58.201Z,101910.88
2018-11-29T05:51:58.839Z,101910.30
2018-11-29T05:52:59.658Z,101909.86
2018-11-29T05:54:00.279Z,101909.44
2018-11-29T05:55:00.674Z,101908.95
2018-11-29T05:56:01.064Z,101908.86
2018-11-29T05:57:01.642Z,101908.21
2018-11-29T05:58:02.123Z,101908.45
2018-11-29T05:59:02.607Z,101908.03
2018-11-29T06:00:03.023Z,101907.80
2018-11-29T06:01:03.408Z,101907.38
2018-11-29T06:02:04.065Z,101905.95
2018-11-29T06:03:04.682Z,101904.94
2018-11-29T06:04:05.462Z,101903.44
2018-11-29T06:05:05.925Z,101902.09
2018-11-29T06:06:06.655Z,101900.59
2018-11-29T06:07:07.570Z,101899.41
2018-11-29T06:08:07.988Z,101897.82
2018-11-29T06:09:08.727Z,101897.23
2018-11-29T06:10:09.051Z,101895.64
2018-11-29T06:11:09.382Z,101894.89
2018-11-29T06:12:09.750Z,101894.48
2018-11-29T06:13:10.345Z,101893.14
2018-11-29T06:14:10.881Z,101891.97
2018-11-29T06:15:11.219Z,101891.23
2018-11-29T06:16:11.884Z,101889.55
2018-11-29T06:17:12.232Z,101888.88
2018-11-29T06:18:12.608Z,101886.78
2018-11-29T06:19:12.996Z,101885.94
2018-11-29T06:20:13.551Z,101884.77
2018-11-29T06:21:14.325Z,101884.10
2018-11-29T06:22:14.767Z,101883.34
2018-11-29T06:23:16.242Z,101882.84
2018-11-29T06:24:15.808Z,101882.84
2018-11-29T06:24:24.850Z,101883.38
2018-11-29T06:25:28.489Z,101883.28
2018-11-29T06:26:25.207Z,101883.38
2018-11-29T06:27:26.588Z,101883.70
2018-11-29T06:28:27.295Z,101884.37
2018-11-29T06:29:27.817Z,101884.97
2018-11-29T06:30:28.326Z,101885.64
2018-11-29T06:31:28.770Z,101886.29
2018-11-29T06:32:29.286Z,101886.80
2018-11-29T06:33:29.657Z,101887.46
2018-11-29T06:34:30.324Z,101887.20
2018-11-29T06:35:30.545Z,101887.70
2018-11-29T06:36:31.035Z,101888.20
2018-11-29T06:37:31.878Z,101888.20
2018-11-29T06:38:32.374Z,101889.30
2018-11-29T06:39:33.106Z,101889.97
2018-11-29T06:40:33.708Z,101890.73
2018-11-29T06:41:34.209Z,101891.16
2018-11-29T06:42:34.773Z,101891.16
2018-11-29T06:43:35.213Z,101892.39
2018-11-29T06:44:35.652Z,101893.32
2018-11-29T06:45:36.056Z,101892.91
2018-11-29T06:46:36.451Z,101893.13
2018-11-29T06:47:36.844Z,101893.65
2018-11-29T06:48:37.491Z,101892.98
2018-11-29T06:49:37.845Z,101892.91
2018-11-29T06:50:38.228Z,101892.57
2018-11-29T06:51:38.684Z,101892.06
2018-11-29T06:52:39.175Z,101890.95
2018-11-29T06:53:39.667Z,101889.95
2018-11-29T06:54:40.234Z,101888.70
2018-11-29T06:55:40.588Z,101887.78
2018-11-29T06:56:41.116Z,101886.95
2018-11-29T06:57:41.494Z,101886.03
2018-11-29T06:58:42.119Z,101884.70
2018-11-29T06:59:42.592Z,101883.52
2018-11-29T07:00:42.910Z,101882.41
2018-11-29T07:01:43.281Z,101881.59
2018-11-29T07:02:43.918Z,101880.56
2018-11-29T07:03:44.326Z,101879.80
2018-11-29T07:04:44.593Z,101878.47
2018-11-29T07:05:45.416Z,101877.28
2018-11-29T07:06:45.856Z,101875.95
2018-11-29T07:07:45.241Z,101874.55
2018-11-29T07:08:47.050Z,101874.37
2018-11-29T07:09:47.545Z,101873.18
2018-11-29T07:09:56.475Z,101868.48
2018-11-29T07:10:57.105Z,101868.09
2018-11-29T07:11:57.535Z,101868.42
2018-11-29T07:12:58.064Z,101868.93
2018-11-29T07:13:58.643Z,101869.34
2018-11-29T07:14:59.623Z,101869.51
2018-11-29T07:16:00.318Z,101869.42
2018-11-29T07:17:01.016Z,101869.42
2018-11-29T07:18:01.948Z,101869.53
2018-11-29T07:19:02.468Z,101869.60
2018-11-29T07:20:03.018Z,101869.84
2018-11-29T07:21:03.801Z,101870.34
2018-11-29T07:22:04.767Z,101871.02
2018-11-29T07:23:05.152Z,101871.36
2018-11-29T07:24:05.568Z,101871.69
2018-11-29T07:25:05.976Z,101872.45
2018-11-29T07:26:06.436Z,101872.38
2018-11-29T07:27:06.854Z,101872.59
2018-11-29T07:28:07.235Z,101872.27
2018-11-29T07:29:07.642Z,101872.36
2018-11-29T07:30:08.285Z,101872.02
2018-11-29T07:31:08.681Z,101872.36
2018-11-29T07:32:09.411Z,101872.28
2018-11-29T07:33:09.807Z,101872.61
2018-11-29T07:34:10.324Z,101873.03
2018-11-29T07:35:11.220Z,101873.27
2018-11-29T07:36:11.825Z,101873.77
2018-11-29T07:37:17.277Z,101873.87
2018-11-29T07:38:11.258Z,101874.38
2018-11-29T07:39:12.668Z,101874.30
2018-11-29T07:40:13.098Z,101874.88
2018-11-29T07:41:13.559Z,101875.38
2018-11-29T07:42:14.040Z,101875.55
2018-11-29T07:43:14.682Z,101875.12
2018-11-29T07:44:15.345Z,101875.28
2018-11-29T07:45:15.720Z,101874.22
2018-11-29T07:46:17.303Z,101874.05
2018-11-29T07:47:15.408Z,101873.38
2018-11-29T07:48:16.841Z,101873.44
2018-11-29T07:49:17.293Z,101872.60
2018-11-29T07:50:17.745Z,101871.94
2018-11-29T07:51:18.192Z,101871.52
2018-11-29T07:52:18.793Z,101871.70
2018-11-29T07:53:19.234Z,101871.27
2018-11-29T07:54:19.727Z,101870.83
2018-11-29T07:54:28.051Z,101860.55
2018-11-29T07:55:28.897Z,101860.48
2018-11-29T07:56:29.285Z,101860.48
2018-11-29T07:57:29.712Z,101860.99
2018-11-29T07:58:30.136Z,101861.07
2018-11-29T07:59:30.656Z,101861.41
2018-11-29T08:00:30.928Z,101861.07
2018-11-29T08:01:31.398Z,101861.38
2018-11-29T08:02:31.796Z,101861.66
2018-11-29T08:03:32.357Z,101861.47
2018-11-29T08:04:32.720Z,101861.45
2018-11-29T08:05:33.199Z,101861.12
2018-11-29T08:06:33.546Z,101860.87
2018-11-29T08:07:33.924Z,101860.20
2018-11-29T08:08:34.279Z,101859.79
2018-11-29T08:09:34.809Z,101858.28
2018-11-29T08:10:35.370Z,101856.77
2018-11-29T08:11:36.035Z,101856.02
2018-11-29T08:12:36.466Z,101854.02
2018-11-29T08:13:36.884Z,101852.56
2018-11-29T08:14:37.397Z,101850.98
2018-11-29T08:15:38.984Z,101849.73
2018-11-29T08:16:37.318Z,101848.31
2018-11-29T08:17:38.669Z,101846.20
2018-11-29T08:18:39.245Z,101844.35
2018-11-29T08:19:39.607Z,101842.84
2018-11-29T08:20:40.170Z,101840.66
2018-11-29T08:21:40.996Z,101838.41
2018-11-29T08:22:41.392Z,101836.73
2018-11-29T08:23:41.861Z,101835.48
2018-11-29T08:24:42.227Z,101833.64
2018-11-29T08:25:42.717Z,101832.36
2018-11-29T08:26:43.342Z,101831.02
2018-11-29T08:27:43.902Z,101830.19
2018-11-29T08:28:44.433Z,101829.17
2018-11-29T08:29:44.967Z,101828.28
2018-11-29T08:30:45.485Z,101827.84
2018-11-29T08:31:45.907Z,101827.59
2018-11-29T08:32:46.319Z,101826.67
2018-11-29T08:33:46.954Z,101826.10
2018-11-29T08:34:47.360Z,101825.09
2018-11-29T08:35:47.813Z,101824.91
2018-11-29T08:36:48.230Z,101824.42
2018-11-29T08:37:48.593Z,101824.40
2018-11-29T08:38:49.119Z,101823.97
2018-11-29T08:39:49.556Z,101824.03
2018-11-29T08:40:00.836Z,101827.20
2018-11-29T08:41:02.150Z,101826.81
2018-11-29T08:42:02.625Z,101826.70
2018-11-29T08:43:02.979Z,101826.70
2018-11-29T08:44:03.490Z,101827.03
2018-11-29T08:45:03.903Z,101827.03
2018-11-29T08:46:04.246Z,101826.87
2018-11-29T08:47:04.556Z,101826.63
2018-11-29T08:48:04.061Z,101826.47
2018-11-29T08:49:05.350Z,101826.78
2018-11-29T08:50:06.175Z,101826.37
2018-11-29T08:51:06.561Z,101826.52
2018-11-29T08:52:07.006Z,101826.78
2018-11-29T08:53:07.120Z,101827.20
2018-11-29T08:54:07.486Z,101827.77
2018-11-29T08:55:08.291Z,101827.75
2018-11-29T08:56:08.873Z,101827.60
2018-11-29T08:57:09.433Z,101828.17
2018-11-29T08:58:10.034Z,101828.49
2018-11-29T08:59:10.440Z,101829.09
2018-11-29T09:00:10.894Z,101829.41
2018-11-29T09:01:11.295Z,101830.16
2018-11-29T09:02:11.617Z,101831.00
2018-11-29T09:03:12.139Z,101831.31
2018-11-29T09:04:12.522Z,101833.23
2018-11-29T09:05:13.041Z,101834.17
2018-11-29T09:06:13.151Z,101834.99
2018-11-29T09:07:13.772Z,101835.84
2018-11-29T09:08:14.492Z,101836.66
2018-11-29T09:09:14.823Z,101837.40
2018-11-29T09:10:15.228Z,101838.40
2018-11-29T09:11:15.714Z,101839.06
2018-11-29T09:12:16.333Z,101839.39
2018-11-29T09:13:16.926Z,101840.14
2018-11-29T09:14:17.466Z,101840.95
2018-11-29T09:15:18.155Z,101841.62
2018-11-29T09:16:18.660Z,101843.10
2018-11-29T09:17:19.154Z,101844.45
2018-11-29T09:18:19.632Z,101845.86
2018-11-29T09:19:20.153Z,101847.67
2018-11-29T09:20:20.619Z,101848.91
2018-11-29T09:21:21.007Z,101850.17
2018-11-29T09:22:21.466Z,101851.30
2018-11-29T09:23:21.841Z,101852.80
2018-11-29T09:24:22.163Z,101854.03
2018-11-29T09:25:22.722Z,101855.70
2018-11-29T09:25:31.169Z,101870.81
2018-11-29T09:26:32.547Z,101869.88
2018-11-29T09:27:32.976Z,101869.04
2018-11-29T09:28:33.529Z,101869.80
2018-11-29T09:29:34.083Z,101869.80
2018-11-29T09:30:34.636Z,101869.89
2018-11-29T09:31:35.036Z,101869.53
2018-11-29T09:32:35.477Z,101869.55
2018-11-29T09:33:35.786Z,101869.36
2018-11-29T09:34:36.301Z,101869.59
2018-11-29T09:35:36.717Z,101869.36
2018-11-29T09:36:37.242Z,101869.00
2018-11-29T09:37:37.542Z,101869.16
2018-11-29T09:38:38.090Z,101868.48
2018-11-29T09:39:38.481Z,101868.30
2018-11-29T09:40:39.157Z,101867.45
2018-11-29T09:41:38.573Z,101866.84
2018-11-29T09:42:39.979Z,101866.41
2018-11-29T09:43:40.259Z,101865.31
2018-11-29T09:44:40.755Z,101864.62
2018-11-29T09:45:41.503Z,101864.12
2018-11-29T09:46:41.898Z,101863.49
2018-11-29T09:47:42.217Z,101862.40
2018-11-29T09:48:42.664Z,101861.80
2018-11-29T09:49:43.252Z,101861.70
2018-11-29T09:50:43.762Z,101861.84
2018-11-29T09:51:44.260Z,101862.08
2018-11-29T09:52:44.846Z,101862.80
2018-11-29T09:53:45.287Z,101862.69
2018-11-29T09:54:45.743Z,101862.67
2018-11-29T09:55:46.259Z,101863.09
2018-11-29T09:56:46.558Z,101863.08
2018-11-29T09:57:46.901Z,101862.91
2018-11-29T09:58:47.277Z,101861.97
2018-11-29T09:59:47.665Z,101861.86
2018-11-29T10:00:48.162Z,101861.20
2018-11-29T10:01:48.832Z,101860.34
2018-11-29T10:02:49.334Z,101860.16
2018-11-29T10:03:50.037Z,101860.16
2018-11-29T10:04:50.454Z,101859.81
2018-11-29T10:05:50.875Z,101859.97
2018-11-29T10:06:51.286Z,101860.03
2018-11-29T10:07:52.203Z,101859.44
2018-11-29T10:08:52.724Z,101858.86
2018-11-29T10:09:01.087Z,101855.58
2018-11-29T10:10:02.455Z,101854.98
2018-11-29T10:11:02.763Z,101855.08
2018-11-29T10:12:03.130Z,101854.57
2018-11-29T10:13:03.556Z,101853.90
2018-11-29T10:14:03.900Z,101852.97
2018-11-29T10:15:04.695Z,101852.12
2018-11-29T10:16:05.391Z,101851.63
2018-11-29T10:17:05.445Z,101851.29
2018-11-29T10:18:05.821Z,101850.95
2018-11-29T10:19:06.333Z,101851.05
2018-11-29T10:20:07.014Z,101850.95
2018-11-29T10:21:07.416Z,101850.53
2018-11-29T10:22:08.051Z,101850.05
2018-11-29T10:23:08.535Z,101849.73
2018-11-29T10:24:09.057Z,101849.39
2018-11-29T10:25:09.449Z,101849.41
2018-11-29T10:26:10.039Z,101849.06
2018-11-29T10:27:10.446Z,101848.58
2018-11-29T10:28:10.906Z,101848.41
2018-11-29T10:29:10.553Z,101847.75
2018-11-29T10:30:12.129Z,101847.57
2018-11-29T10:31:12.619Z,101847.09
2018-11-29T10:32:13.315Z,101846.58
2018-11-29T10:33:14.070Z,101846.59
2018-11-29T10:34:14.798Z,101847.09
2018-11-29T10:35:15.177Z,101847.11
2018-11-29T10:36:15.631Z,101846.43
2018-11-29T10:37:16.073Z,101846.03
2018-11-29T10:38:16.523Z,101845.44
2018-11-29T10:39:16.936Z,101844.68
2018-11-29T10:40:17.338Z,101844.52
2018-11-29T10:41:17.695Z,101844.13
2018-11-29T10:42:18.073Z,101843.11
2018-11-29T10:43:18.471Z,101842.44
2018-11-29T10:44:18.905Z,101841.61
2018-11-29T10:45:19.035Z,101840.48
2018-11-29T10:46:19.534Z,101839.40
2018-11-29T10:47:19.928Z,101837.81
2018-11-29T10:48:20.608Z,101836.69
2018-11-29T10:49:21.060Z,101835.61
2018-11-29T10:50:21.625Z,101834.00
2018-11-29T10:51:23.171Z,101832.58
2018-11-29T10:52:21.612Z,101831.67
2018-11-29T10:53:23.078Z,101830.32
2018-11-29T10:54:23.489Z,101829.15
2018-11-29T10:54:31.919Z,101806.26
2018-11-29T10:55:32.697Z,101805.50
2018-11-29T10:56:33.594Z,101805.59
2018-11-29T10:57:33.944Z,101805.25
2018-11-29T10:58:34.324Z,101804.75
2018-11-29T10:59:34.808Z,101804.76
2018-11-29T11:00:35.299Z,101804.31
2018-11-29T11:01:35.996Z,101803.89
2018-11-29T11:02:36.506Z,101803.41
2018-11-29T11:03:37.506Z,101802.28
2018-11-29T11:04:37.943Z,101802.13
2018-11-29T11:05:38.410Z,101801.20
2018-11-29T11:06:38.850Z,101800.85
2018-11-29T11:07:39.661Z,101800.66
2018-11-29T11:08:40.108Z,101799.91
2018-11-29T11:09:40.417Z,101799.75
2018-11-29T11:10:41.358Z,101798.97
2018-11-29T11:11:41.695Z,101798.39
2018-11-29T11:12:42.001Z,101796.88
2018-11-29T11:13:42.481Z,101795.79
2018-11-29T11:14:42.910Z,101794.19
2018-11-29T11:15:43.331Z,101793.02
2018-11-29T11:16:43.794Z,101791.50